Amenia, NY

6:10 PM EDT en Marzo 28, 2015 (GMT -0400)
Stewart International | | Change Station
CLOSE
Current Station
Aeropuerto
Location: Newburgh,
Altura: 492 ft
Estaciones meteorológicas cercanas
Aviso en curso: Special Statement Aviso activo: Public Information Statement

Alt 492 ft 41.50 °N, 74.10 °W | Updated 25 minutes ago

Nublado
Nublado
34 ° F
Sensación térmica 26 ° F
N
9
Viento Variable Viento desde NO

Hoy
Alta -- | Baja -- ° F
--% Posibilidad de precipitaciones
Ayer
Alta -- | Baja -- ° F
Precip. -- pul
6:44 AM 7:14 PM
Gibosa creciente, 65% visible
Presión 29.92 pul
Visibilidad 6.0 Millas
Nubes Nublado 3000 ft
Vientos helados 26 ° F
Punto de rocío 23 ° F
Humedad 65%
Precipitaciones 0.00 pul
Espesor de la nieve No disponible.
UV 0 de una escala de 12
Polen 4.80 de una escala de 12
Calidad del aire No disponible.
Flu Activity No disponible.
METAR KSWF 282145Z 31008KT 6SM BR OVC030 01/M05 A2992

More Conditions Fewer Conditions

Presión 29.92 pul
Visibilidad 6.0 Millas
Nubes Nublado 3000 ft
Vientos helados 26 ° F
Punto de rocío 23 ° F
Humedad 65%
Precipitaciones 0.00 pul
Espesor de la nieve No disponible.
UV 0 de una escala de 12
Polen 4.80 de una escala de 12
Calidad del aire No disponible.
Flu Activity No disponible.
METAR KSWF 282145Z 31008KT 6SM BR OVC030 01/M05 A2992

More Conditions Fewer Conditions

10-Day Weather Forecast

Almanac

Astronomía

Mar. 28, 2015 Salida Puesta
Hora real
Crepúsculo civil
Crepúsculo náutico
Crepúsculo astronómico
Luna
Horas de luz
Horas de luz
Tomorrow will be .
, % of the Moon is Illuminated

Extremos de hoy

Máximos del estado Bajos del estado

Community

WunderPhotos

Upload Photos

1,809,099 ¡fotos cargadas!

WunderBlogs® & News

Nearby

Calidad del aire

  Calidad del aire Índice AQ Contaminante
Not available.

Grosos de nieve

Estación Profundido Altura

Actividad de terremotos

Ciudad Distance Mag. Tiempo y dato
Magnitud mínima muestra es 2,5.

Temperaturas de aguas costeras

Lugar Temperatura

Stations

Estaciones meteorológicas cercanas

Ubicación de la estación Temp. Vientos helados Punto de rocío Humedad Viento Precip. Alt Actualizado Tipo
                   
Special Statement
Statement as of 5:17 PM EDT en Marzo 28, 2015

... Areas of black ice possible overnight...

Snow showers will taper off this evening. Most of the snow which
occurred today melted on contact with many pavement surfaces.
However... as the sun sets... lingering water will likely freeze up
this evening and overnight as temperatures fall well below the
freezing mark. This will create areas of black ice... especially
on untreated pavement surfaces including roadways... parking
lots... and driveways. Motorists and pedestrians are urged to use
extra caution if driving or walking this evening and overnight.